Terminal Aerodrome Forecast
Issued by NWS Topeka, KS

Home | Current Version | Previous Version | Graphics & Text | Print | Product List | Glossary On
Versions: 1 2 3 4 5 6 7 8 9 10 11 12 13 14
000
FTUS43 KTOP 251122
TAFTOP
TAF
KTOP 251122Z 2512/2612 14008KT P6SM SCT100 BKN200
     FM251400 17011G20KT P6SM SCT090 BKN200
     FM252100 19007KT P6SM OVC040
     FM260100 34012G20KT 5SM -TSRA SCT007 OVC025CB
     FM260300 33012KT 5SM -SHRA SCT007 OVC025
     FM260900 34013KT 5SM -SHRA OVC007=

USA.gov is the U.S. government's official web portal to all federal, state and local government web resources and services.